sensor_id;sensor_type;location;lat;lon;timestamp;pressure;altitude;pressure_sealevel;temperature;humidity
33404;BME280;19751;40.274;18.268;2023-04-06T00:00:55;100781.72;;;9.68;100.00
33404;BME280;19751;40.274;18.268;2023-04-06T00:03:20;100775.69;;;9.66;100.00
33404;BME280;19751;40.274;18.268;2023-04-06T00:05:47;100776.41;;;9.60;100.00
33404;BME280;19751;40.274;18.268;2023-04-06T00:08:13;100767.88;;;9.56;100.00
33404;BME280;19751;40.274;18.268;2023-04-06T00:10:38;100767.59;;;9.51;100.00
33404;BME280;19751;40.274;18.268;2023-04-06T00:13:05;100768.63;;;9.50;100.00
33404;BME280;19751;40.274;18.268;2023-04-06T00:15:31;100762.22;;;9.51;100.00
33404;BME280;19751;40.274;18.268;2023-04-06T00:17:56;100768.16;;;9.46;100.00
33404;BME280;19751;40.274;18.268;2023-04-06T00:20:23;100771.00;;;9.45;100.00
33404;BME280;19751;40.274;18.268;2023-04-06T00:22:48;100763.78;;;9.45;100.00
33404;BME280;19751;40.274;18.268;2023-04-06T00:25:14;100763.13;;;9.43;100.00
33404;BME280;19751;40.274;18.268;2023-04-06T00:27:40;100750.50;;;9.44;100.00
33404;BME280;19751;40.274;18.268;2023-04-06T00:30:07;100758.09;;;9.40;100.00
33404;BME280;19751;40.274;18.268;2023-04-06T00:32:33;100755.88;;;9.29;100.00
33404;BME280;19751;40.274;18.268;2023-04-06T00:34:59;100766.97;;;9.26;100.00
33404;BME280;19751;40.274;18.268;2023-04-06T00:37:25;100760.75;;;9.26;100.00
33404;BME280;19751;40.274;18.268;2023-04-06T00:39:50;100761.94;;;9.23;100.00
33404;BME280;19751;40.274;18.268;2023-04-06T00:42:19;100761.31;;;9.21;100.00
33404;BME280;19751;40.274;18.268;2023-04-06T00:44:54;100751.53;;;9.20;100.00
33404;BME280;19751;40.274;18.268;2023-04-06T00:47:21;100760.81;;;9.17;100.00
33404;BME280;19751;40.274;18.268;2023-04-06T00:49:47;100756.00;;;9.13;100.00
33404;BME280;19751;40.274;18.268;2023-04-06T00:52:13;100758.69;;;9.13;100.00
33404;BME280;19751;40.274;18.268;2023-04-06T00:54:38;100763.66;;;9.16;100.00
33404;BME280;19751;40.274;18.268;2023-04-06T00:57:04;100767.19;;;9.16;100.00
33404;BME280;19751;40.274;18.268;2023-04-06T00:59:29;100768.41;;;9.14;100.00
33404;BME280;19751;40.274;18.268;2023-04-06T01:01:55;100770.75;;;9.17;100.00
33404;BME280;19751;40.274;18.268;2023-04-06T01:04:21;100776.13;;;9.17;100.00
33404;BME280;19751;40.274;18.268;2023-04-06T01:06:48;100758.28;;;9.16;100.00
33404;BME280;19751;40.274;18.268;2023-04-06T01:09:15;100757.66;;;9.14;100.00
33404;BME280;19751;40.274;18.268;2023-04-06T01:11:40;100762.41;;;9.04;100.00
33404;BME280;19751;40.274;18.268;2023-04-06T01:14:06;100757.97;;;8.96;100.00
33404;BME280;19751;40.274;18.268;2023-04-06T01:16:31;100763.00;;;8.91;100.00
33404;BME280;19751;40.274;18.268;2023-04-06T01:18:57;100753.81;;;8.85;100.00
33404;BME280;19751;40.274;18.268;2023-04-06T01:21:23;100761.38;;;8.82;100.00
33404;BME280;19751;40.274;18.268;2023-04-06T01:23:48;100749.16;;;8.79;100.00
33404;BME280;19751;40.274;18.268;2023-04-06T01:26:14;100750.00;;;8.80;100.00
33404;BME280;19751;40.274;18.268;2023-04-06T01:28:39;100755.72;;;8.77;100.00
33404;BME280;19751;40.274;18.268;2023-04-06T01:31:09;100752.75;;;8.71;100.00
33404;BME280;19751;40.274;18.268;2023-04-06T01:33:34;100754.63;;;8.63;100.00
33404;BME280;19751;40.274;18.268;2023-04-06T01:36:00;100751.75;;;8.64;100.00
33404;BME280;19751;40.274;18.268;2023-04-06T01:38:26;100761.00;;;8.62;100.00
33404;BME280;19751;40.274;18.268;2023-04-06T01:40:55;100748.78;;;8.59;100.00
33404;BME280;19751;40.274;18.268;2023-04-06T01:43:21;100757.47;;;8.61;100.00
33404;BME280;19751;40.274;18.268;2023-04-06T01:45:47;100749.28;;;8.63;100.00
33404;BME280;19751;40.274;18.268;2023-04-06T01:48:13;100755.47;;;8.63;100.00
33404;BME280;19751;40.274;18.268;2023-04-06T01:50:38;100750.25;;;8.62;100.00
33404;BME280;19751;40.274;18.268;2023-04-06T01:53:03;100750.09;;;8.63;100.00
33404;BME280;19751;40.274;18.268;2023-04-06T01:55:29;100749.06;;;8.64;100.00
33404;BME280;19751;40.274;18.268;2023-04-06T01:57:55;100743.53;;;8.66;100.00
33404;BME280;19751;40.274;18.268;2023-04-06T02:00:20;100745.66;;;8.70;100.00
33404;BME280;19751;40.274;18.268;2023-04-06T02:02:46;100743.84;;;8.71;100.00
33404;BME280;19751;40.274;18.268;2023-04-06T02:05:11;100748.75;;;8.67;100.00
33404;BME280;19751;40.274;18.268;2023-04-06T02:07:37;100746.41;;;8.64;100.00
33404;BME280;19751;40.274;18.268;2023-04-06T02:10:03;100737.22;;;8.59;100.00
33404;BME280;19751;40.274;18.268;2023-04-06T02:12:28;100749.13;;;8.56;100.00
33404;BME280;19751;40.274;18.268;2023-04-06T02:14:54;100740.06;;;8.57;100.00
33404;BME280;19751;40.274;18.268;2023-04-06T02:17:19;100747.56;;;8.62;100.00
33404;BME280;19751;40.274;18.268;2023-04-06T02:19:45;100736.50;;;8.65;100.00
33404;BME280;19751;40.274;18.268;2023-04-06T02:22:11;100729.09;;;8.67;100.00
33404;BME280;19751;40.274;18.268;2023-04-06T02:24:36;100730.09;;;8.66;100.00
33404;BME280;19751;40.274;18.268;2023-04-06T02:27:02;100735.78;;;8.71;100.00
33404;BME280;19751;40.274;18.268;2023-04-06T02:29:27;100733.56;;;8.75;100.00
33404;BME280;19751;40.274;18.268;2023-04-06T02:31:53;100731.06;;;8.73;100.00
33404;BME280;19751;40.274;18.268;2023-04-06T02:34:18;100733.09;;;8.71;100.00
33404;BME280;19751;40.274;18.268;2023-04-06T02:36:45;100729.56;;;8.70;100.00
33404;BME280;19751;40.274;18.268;2023-04-06T02:39:11;100727.41;;;8.66;100.00
33404;BME280;19751;40.274;18.268;2023-04-06T02:41:37;100725.97;;;8.55;100.00
33404;BME280;19751;40.274;18.268;2023-04-06T02:44:03;100719.28;;;8.51;100.00
33404;BME280;19751;40.274;18.268;2023-04-06T02:46:28;100717.44;;;8.52;100.00
33404;BME280;19751;40.274;18.268;2023-04-06T02:48:54;100726.13;;;8.54;100.00
33404;BME280;19751;40.274;18.268;2023-04-06T02:51:20;100724.50;;;8.44;100.00
33404;BME280;19751;40.274;18.268;2023-04-06T02:53:46;100725.34;;;8.45;100.00
33404;BME280;19751;40.274;18.268;2023-04-06T02:56:11;100722.13;;;8.50;100.00
33404;BME280;19751;40.274;18.268;2023-04-06T02:58:37;100718.47;;;8.51;100.00
33404;BME280;19751;40.274;18.268;2023-04-06T03:01:03;100726.50;;;8.51;100.00
33404;BME280;19751;40.274;18.268;2023-04-06T03:03:29;100730.19;;;8.50;100.00
33404;BME280;19751;40.274;18.268;2023-04-06T03:05:55;100731.69;;;8.52;100.00
33404;BME280;19751;40.274;18.268;2023-04-06T03:08:23;100731.69;;;8.52;100.00
33404;BME280;19751;40.274;18.268;2023-04-06T03:10:49;100725.97;;;8.55;100.00
33404;BME280;19751;40.274;18.268;2023-04-06T03:13:15;100724.13;;;8.56;100.00
33404;BME280;19751;40.274;18.268;2023-04-06T03:15:40;100727.66;;;8.56;100.00
33404;BME280;19751;40.274;18.268;2023-04-06T03:18:06;100717.75;;;8.57;100.00
33404;BME280;19751;40.274;18.268;2023-04-06T03:20:32;100725.25;;;8.61;100.00
33404;BME280;19751;40.274;18.268;2023-04-06T03:22:58;100730.09;;;8.66;100.00
33404;BME280;19751;40.274;18.268;2023-04-06T03:25:23;100722.75;;;8.60;100.00
33404;BME280;19751;40.274;18.268;2023-04-06T03:27:49;100728.13;;;8.60;100.00
33404;BME280;19751;40.274;18.268;2023-04-06T03:30:14;100725.75;;;8.65;100.00
33404;BME280;19751;40.274;18.268;2023-04-06T03:32:45;100734.81;;;8.64;100.00
33404;BME280;19751;40.274;18.268;2023-04-06T03:35:10;100724.91;;;8.64;100.00
33404;BME280;19751;40.274;18.268;2023-04-06T03:37:36;100730.25;;;8.73;100.00
33404;BME280;19751;40.274;18.268;2023-04-06T03:40:02;100734.78;;;8.72;100.00
33404;BME280;19751;40.274;18.268;2023-04-06T03:42:28;100726.72;;;8.72;100.00
33404;BME280;19751;40.274;18.268;2023-04-06T03:44:53;100725.50;;;8.75;100.00
33404;BME280;19751;40.274;18.268;2023-04-06T03:47:19;100728.38;;;8.73;100.00
33404;BME280;19751;40.274;18.268;2023-04-06T03:49:45;100740.63;;;8.76;100.00
33404;BME280;19751;40.274;18.268;2023-04-06T03:52:11;100738.59;;;8.78;100.00
33404;BME280;19751;40.274;18.268;2023-04-06T03:54:36;100740.44;;;8.77;100.00
33404;BME280;19751;40.274;18.268;2023-04-06T03:57:03;100747.84;;;8.75;100.00
33404;BME280;19751;40.274;18.268;2023-04-06T03:59:29;100753.56;;;8.72;100.00
33404;BME280;19751;40.274;18.268;2023-04-06T04:01:55;100748.53;;;8.69;100.00
33404;BME280;19751;40.274;18.268;2023-04-06T04:04:21;100755.91;;;8.75;100.00
33404;BME280;19751;40.274;18.268;2023-04-06T04:06:46;100755.38;;;8.80;100.00
33404;BME280;19751;40.274;18.268;2023-04-06T04:09:12;100757.53;;;8.84;100.00
33404;BME280;19751;40.274;18.268;2023-04-06T04:11:37;100763.53;;;8.86;100.00
33404;BME280;19751;40.274;18.268;2023-04-06T04:14:03;100765.69;;;8.91;100.00
33404;BME280;19751;40.274;18.268;2023-04-06T04:16:28;100771.06;;;8.91;100.00
33404;BME280;19751;40.274;18.268;2023-04-06T04:18:54;100770.91;;;8.92;100.00
33404;BME280;19751;40.274;18.268;2023-04-06T04:21:20;100770.53;;;8.95;100.00
33404;BME280;19751;40.274;18.268;2023-04-06T04:23:45;100765.47;;;9.01;100.00
33404;BME280;19751;40.274;18.268;2023-04-06T04:26:11;100777.59;;;8.96;100.00
33404;BME280;19751;40.274;18.268;2023-04-06T04:28:36;100775.56;;;8.99;100.00
33404;BME280;19751;40.274;18.268;2023-04-06T04:31:02;100782.78;;;8.98;100.00
33404;BME280;19751;40.274;18.268;2023-04-06T04:33:27;100785.13;;;9.01;100.00
33404;BME280;19751;40.274;18.268;2023-04-06T04:35:53;100791.66;;;8.99;100.00
33404;BME280;19751;40.274;18.268;2023-04-06T04:38:18;100792.34;;;9.01;100.00
33404;BME280;19751;40.274;18.268;2023-04-06T04:40:44;100790.50;;;9.01;100.00
33404;BME280;19751;40.274;18.268;2023-04-06T04:43:09;100790.16;;;9.04;100.00
33404;BME280;19751;40.274;18.268;2023-04-06T04:45:35;100796.16;;;9.06;100.00
33404;BME280;19751;40.274;18.268;2023-04-06T04:48:00;100795.97;;;9.08;100.00
33404;BME280;19751;40.274;18.268;2023-04-06T04:50:26;100800.03;;;9.04;100.00
33404;BME280;19751;40.274;18.268;2023-04-06T04:52:51;100798.72;;;9.00;100.00
33404;BME280;19751;40.274;18.268;2023-04-06T04:55:17;100800.41;;;9.01;100.00
33404;BME280;19751;40.274;18.268;2023-04-06T04:57:43;100805.41;;;9.04;100.00
33404;BME280;19751;40.274;18.268;2023-04-06T05:00:09;100803.38;;;9.06;100.00
33404;BME280;19751;40.274;18.268;2023-04-06T05:02:34;100801.66;;;9.13;100.00
33404;BME280;19751;40.274;18.268;2023-04-06T05:05:00;100788.88;;;9.15;100.00
33404;BME280;19751;40.274;18.268;2023-04-06T05:07:26;100798.97;;;9.13;100.00
33404;BME280;19751;40.274;18.268;2023-04-06T05:09:52;100800.34;;;9.09;100.00
33404;BME280;19751;40.274;18.268;2023-04-06T05:12:18;100801.34;;;9.08;100.00
33404;BME280;19751;40.274;18.268;2023-04-06T05:14:44;100807.19;;;9.11;100.00
33404;BME280;19751;40.274;18.268;2023-04-06T05:17:10;100798.97;;;9.13;100.00
33404;BME280;19751;40.274;18.268;2023-04-06T05:19:36;100801.66;;;9.13;100.00
33404;BME280;19751;40.274;18.268;2023-04-06T05:22:01;100802.56;;;9.05;100.00
33404;BME280;19751;40.274;18.268;2023-04-06T05:24:27;100798.00;;;9.06;100.00
33404;BME280;19751;40.274;18.268;2023-04-06T05:26:52;100799.34;;;9.10;100.00
33404;BME280;19751;40.274;18.268;2023-04-06T05:29:18;100802.50;;;9.13;100.00
33404;BME280;19751;40.274;18.268;2023-04-06T05:31:44;100799.69;;;9.07;100.00
33404;BME280;19751;40.274;18.268;2023-04-06T05:34:09;100801.53;;;9.06;100.00
33404;BME280;19751;40.274;18.268;2023-04-06T05:36:35;100806.44;;;9.03;100.00
33404;BME280;19751;40.274;18.268;2023-04-06T05:39:01;100806.44;;;9.03;100.00
33404;BME280;19751;40.274;18.268;2023-04-06T05:41:26;100800.03;;;9.04;100.00
33404;BME280;19751;40.274;18.268;2023-04-06T05:43:52;100803.19;;;9.07;100.00
33404;BME280;19751;40.274;18.268;2023-04-06T05:46:18;100802.50;;;9.13;100.00
33404;BME280;19751;40.274;18.268;2023-04-06T05:48:43;100806.66;;;9.16;100.00
33404;BME280;19751;40.274;18.268;2023-04-06T05:51:09;100802.78;;;9.18;100.00
33404;BME280;19751;40.274;18.268;2023-04-06T05:53:34;100803.28;;;9.22;100.00
33404;BME280;19751;40.274;18.268;2023-04-06T05:56:03;100804.94;;;9.23;100.00
33404;BME280;19751;40.274;18.268;2023-04-06T05:58:29;100804.59;;;9.26;100.00
33404;BME280;19751;40.274;18.268;2023-04-06T06:01:01;100807.38;;;9.33;100.00
33404;BME280;19751;40.274;18.268;2023-04-06T06:03:28;100815.56;;;9.39;100.00
33404;BME280;19751;40.274;18.268;2023-04-06T06:05:53;100809.31;;;9.47;100.00
33404;BME280;19751;40.274;18.268;2023-04-06T06:08:19;100814.13;;;9.52;100.00
33404;BME280;19751;40.274;18.268;2023-04-06T06:10:45;100813.94;;;9.53;100.00
33404;BME280;19751;40.274;18.268;2023-04-06T06:13:10;100818.50;;;9.53;100.00
33404;BME280;19751;40.274;18.268;2023-04-06T06:15:36;100815.44;;;9.56;100.00
33404;BME280;19751;40.274;18.268;2023-04-06T06:18:01;100818.44;;;9.61;100.00
33404;BME280;19751;40.274;18.268;2023-04-06T06:20:27;100810.28;;;9.69;100.00
33404;BME280;19751;40.274;18.268;2023-04-06T06:22:52;100819.31;;;9.76;100.00
33404;BME280;19751;40.274;18.268;2023-04-06T06:25:18;100819.22;;;9.84;100.00
33404;BME280;19751;40.274;18.268;2023-04-06T06:27:44;100825.91;;;9.88;100.00
33404;BME280;19751;40.274;18.268;2023-04-06T06:30:09;100825.84;;;9.96;100.00
33404;BME280;19751;40.274;18.268;2023-04-06T06:32:35;100817.78;;;9.96;100.00
33404;BME280;19751;40.274;18.268;2023-04-06T06:35:01;100818.59;;;9.97;100.00
33404;BME280;19751;40.274;18.268;2023-04-06T06:37:26;100823.44;;;10.02;100.00
33404;BME280;19751;40.274;18.268;2023-04-06T06:39:52;100830.78;;;10.08;100.00
33404;BME280;19751;40.274;18.268;2023-04-06T06:42:17;100828.38;;;10.13;100.00
33404;BME280;19751;40.274;18.268;2023-04-06T06:44:43;100827.81;;;10.17;100.00
33404;BME280;19751;40.274;18.268;2023-04-06T06:47:08;100830.59;;;10.24;100.00
33404;BME280;19751;40.274;18.268;2023-04-06T06:49:34;100829.06;;;10.30;100.00
33404;BME280;19751;40.274;18.268;2023-04-06T06:52:00;100825.13;;;10.32;100.00
33404;BME280;19751;40.274;18.268;2023-04-06T06:54:25;100824.59;;;10.37;100.00
33404;BME280;19751;40.274;18.268;2023-04-06T06:56:51;100826.53;;;10.43;100.00
33404;BME280;19751;40.274;18.268;2023-04-06T06:59:16;100832.59;;;10.45;100.00
33404;BME280;19751;40.274;18.268;2023-04-06T07:01:42;100834.53;;;10.36;100.00
33404;BME280;19751;40.274;18.268;2023-04-06T07:04:08;100842.56;;;10.21;100.00
33404;BME280;19751;40.274;18.268;2023-04-06T07:06:35;100835.50;;;10.06;100.00
33404;BME280;19751;40.274;18.268;2023-04-06T07:09:02;100844.34;;;9.77;100.00
33404;BME280;19751;40.274;18.268;2023-04-06T07:11:29;100837.25;;;9.61;100.00
33404;BME280;19751;40.274;18.268;2023-04-06T07:13:54;100842.69;;;9.53;100.00
33404;BME280;19751;40.274;18.268;2023-04-06T07:16:20;100845.44;;;9.44;100.00
33404;BME280;19751;40.274;18.268;2023-04-06T07:18:46;100853.50;;;9.44;100.00
33404;BME280;19751;40.274;18.268;2023-04-06T07:21:11;100853.03;;;9.41;100.00
33404;BME280;19751;40.274;18.268;2023-04-06T07:23:37;100847.50;;;9.42;100.00
33404;BME280;19751;40.274;18.268;2023-04-06T07:26:03;100848.41;;;9.50;100.00
33404;BME280;19751;40.274;18.268;2023-04-06T07:28:28;100846.41;;;9.52;100.00
33404;BME280;19751;40.274;18.268;2023-04-06T07:30:54;100848.06;;;9.53;100.00
33404;BME280;19751;40.274;18.268;2023-04-06T07:33:20;100846.41;;;9.52;100.00
33404;BME280;19751;40.274;18.268;2023-04-06T07:35:46;100844.84;;;9.57;100.00
33404;BME280;19751;40.274;18.268;2023-04-06T07:38:12;100840.41;;;9.64;100.00
33404;BME280;19751;40.274;18.268;2023-04-06T07:40:37;100844.16;;;9.78;100.00
33404;BME280;19751;40.274;18.268;2023-04-06T07:43:03;100841.59;;;9.85;100.00
33404;BME280;19751;40.274;18.268;2023-04-06T07:45:29;100841.59;;;9.85;100.00
33404;BME280;19751;40.274;18.268;2023-04-06T07:47:55;100852.00;;;9.88;100.00
33404;BME280;19751;40.274;18.268;2023-04-06T07:50:20;100845.69;;;9.95;100.00
33404;BME280;19751;40.274;18.268;2023-04-06T07:52:46;100847.09;;;10.06;100.00
33404;BME280;19751;40.274;18.268;2023-04-06T07:55:12;100844.53;;;10.13;100.00
33404;BME280;19751;40.274;18.268;2023-04-06T07:57:37;100849.34;;;10.17;100.00
33404;BME280;19751;40.274;18.268;2023-04-06T08:00:03;100850.66;;;10.21;100.00
33404;BME280;19751;40.274;18.268;2023-04-06T08:02:31;100849.75;;;10.29;100.00
33404;BME280;19751;40.274;18.268;2023-04-06T08:04:56;100853.47;;;10.43;100.00
33404;BME280;19751;40.274;18.268;2023-04-06T08:07:22;100852.34;;;10.52;100.00
33404;BME280;19751;40.274;18.268;2023-04-06T08:09:47;100857.19;;;10.57;100.00
33404;BME280;19751;40.274;18.268;2023-04-06T08:12:13;100851.88;;;10.63;100.00
33404;BME280;19751;40.274;18.268;2023-04-06T08:14:39;100852.00;;;10.70;100.00
33404;BME280;19751;40.274;18.268;2023-04-06T08:17:04;100859.50;;;10.75;100.00
33404;BME280;19751;40.274;18.268;2023-04-06T08:19:30;100857.91;;;10.80;100.00
33404;BME280;19751;40.274;18.268;2023-04-06T08:21:55;100867.91;;;10.86;100.00
33404;BME280;19751;40.274;18.268;2023-04-06T08:24:21;100873.97;;;10.88;100.00
33404;BME280;19751;40.274;18.268;2023-04-06T08:26:46;100869.16;;;10.84;100.00
33404;BME280;19751;40.274;18.268;2023-04-06T08:29:12;100875.94;;;10.80;100.00
33404;BME280;19751;40.274;18.268;2023-04-06T08:31:37;100871.56;;;10.79;100.00
33404;BME280;19751;40.274;18.268;2023-04-06T08:34:04;100872.88;;;10.83;100.00
33404;BME280;19751;40.274;18.268;2023-04-06T08:36:30;100876.00;;;10.86;100.00
33404;BME280;19751;40.274;18.268;2023-04-06T08:38:56;100881.69;;;10.91;100.00
33404;BME280;19751;40.274;18.268;2023-04-06T08:41:21;100877.59;;;10.95;100.00
33404;BME280;19751;40.274;18.268;2023-04-06T08:43:48;100883.44;;;10.99;100.00
33404;BME280;19751;40.274;18.268;2023-04-06T08:46:15;100884.28;;;11.00;100.00
33404;BME280;19751;40.274;18.268;2023-04-06T08:48:42;100889.22;;;10.96;100.00
33404;BME280;19751;40.274;18.268;2023-04-06T08:51:09;100888.84;;;10.99;100.00
33404;BME280;19751;40.274;18.268;2023-04-06T08:53:35;100888.06;;;11.05;100.00
33404;BME280;19751;40.274;18.268;2023-04-06T08:56:02;100893.34;;;11.13;100.00
33404;BME280;19751;40.274;18.268;2023-04-06T08:58:32;100887.84;;;11.22;100.00
33404;BME280;19751;40.274;18.268;2023-04-06T09:00:59;100899.72;;;11.27;100.00
33404;BME280;19751;40.274;18.268;2023-04-06T09:03:28;100900.56;;;11.28;100.00
33404;BME280;19751;40.274;18.268;2023-04-06T09:05:54;100895.44;;;11.33;100.00
33404;BME280;19751;40.274;18.268;2023-04-06T09:08:22;100898.41;;;11.38;100.00
33404;BME280;19751;40.274;18.268;2023-04-06T09:10:47;100899.50;;;11.43;100.00
33404;BME280;19751;40.274;18.268;2023-04-06T09:13:14;100898.75;;;11.50;100.00
33404;BME280;19751;40.274;18.268;2023-04-06T09:15:39;100906.44;;;11.53;100.00
33404;BME280;19751;40.274;18.268;2023-04-06T09:18:05;100911.44;;;11.56;100.00
33404;BME280;19751;40.274;18.268;2023-04-06T09:20:31;100914.53;;;11.53;100.00
33404;BME280;19751;40.274;18.268;2023-04-06T09:22:56;100907.72;;;11.57;100.00
33404;BME280;19751;40.274;18.268;2023-04-06T09:25:24;100912.94;;;11.58;100.00
33404;BME280;19751;40.274;18.268;2023-04-06T09:28:04;100912.94;;;11.58;97.93
33404;BME280;19751;40.274;18.268;2023-04-06T09:30:30;100914.81;;;11.58;97.02
33404;BME280;19751;40.274;18.268;2023-04-06T09:32:57;100917.50;;;11.58;95.85
33404;BME280;19751;40.274;18.268;2023-04-06T09:35:23;100914.03;;;11.64;95.14
33404;BME280;19751;40.274;18.268;2023-04-06T09:37:51;100921.09;;;11.65;90.05
33404;BME280;19751;40.274;18.268;2023-04-06T09:40:17;100912.59;;;11.68;90.64
33404;BME280;19751;40.274;18.268;2023-04-06T09:42:48;100926.09;;;11.68;89.28
33404;BME280;19751;40.274;18.268;2023-04-06T09:45:15;100928.16;;;11.66;86.36
33404;BME280;19751;40.274;18.268;2023-04-06T09:47:45;100928.09;;;11.59;83.45
33404;BME280;19751;40.274;18.268;2023-04-06T09:50:12;100924.09;;;11.55;81.54
33404;BME280;19751;40.274;18.268;2023-04-06T09:52:42;100931.94;;;11.50;80.34
33404;BME280;19751;40.274;18.268;2023-04-06T09:55:08;100930.44;;;11.48;84.21
33404;BME280;19751;40.274;18.268;2023-04-06T10:00:17;100933.41;;;11.53;92.49
33404;BME280;19751;40.274;18.268;2023-04-06T10:02:50;100930.44;;;11.48;100.00
33404;BME280;19751;40.274;18.268;2023-04-06T10:08:18;100951.25;;;11.32;100.00
33404;BME280;19751;40.274;18.268;2023-04-06T10:10:44;100945.00;;;11.32;100.00
33404;BME280;19751;40.274;18.268;2023-04-06T10:13:11;100951.25;;;11.32;100.00
33404;BME280;19751;40.274;18.268;2023-04-06T10:15:37;100952.44;;;11.30;100.00
33404;BME280;19751;40.274;18.268;2023-04-06T10:18:04;100944.72;;;11.27;100.00
33404;BME280;19751;40.274;18.268;2023-04-06T10:20:42;100950.97;;;11.27;100.00
33404;BME280;19751;40.274;18.268;2023-04-06T10:23:19;100950.13;;;11.27;100.00
33404;BME280;19751;40.274;18.268;2023-04-06T10:25:56;100956.28;;;11.20;100.00
33404;BME280;19751;40.274;18.268;2023-04-06T10:28:23;100955.34;;;11.13;100.00
33404;BME280;19751;40.274;18.268;2023-04-06T10:30:48;100970.03;;;11.11;100.00
33404;BME280;19751;40.274;18.268;2023-04-06T10:33:15;100963.19;;;11.08;100.00
33404;BME280;19751;40.274;18.268;2023-04-06T10:35:41;100961.50;;;11.07;100.00
33404;BME280;19751;40.274;18.268;2023-04-06T10:38:07;100967.28;;;11.04;100.00
33404;BME280;19751;40.274;18.268;2023-04-06T10:40:36;100963.75;;;11.04;100.00
33404;BME280;19751;40.274;18.268;2023-04-06T10:45:33;100966.44;;;11.04;100.00
33404;BME280;19751;40.274;18.268;2023-04-06T10:47:58;100971.00;;;11.03;100.00
33404;BME280;19751;40.274;18.268;2023-04-06T10:50:24;100967.00;;;10.99;100.00
33404;BME280;19751;40.274;18.268;2023-04-06T10:53:00;100972.56;;;10.98;100.00
33404;BME280;19751;40.274;18.268;2023-04-06T10:55:27;100977.59;;;11.01;100.00
33404;BME280;19751;40.274;18.268;2023-04-06T10:57:53;100977.22;;;11.04;100.00
33404;BME280;19751;40.274;18.268;2023-04-06T11:00:19;100973.50;;;11.05;100.00
33404;BME280;19751;40.274;18.268;2023-04-06T11:02:45;100971.38;;;11.00;100.00
33404;BME280;19751;40.274;18.268;2023-04-06T11:05:11;100977.94;;;10.98;100.00
33404;BME280;19751;40.274;18.268;2023-04-06T11:07:39;100971.94;;;10.95;100.00
33404;BME280;19751;40.274;18.268;2023-04-06T11:10:05;100972.91;;;10.94;100.00
33404;BME280;19751;40.274;18.268;2023-04-06T11:12:31;100969.22;;;10.95;100.00
33404;BME280;19751;40.274;18.268;2023-04-06T11:15:01;100971.63;;;11.05;100.00
33404;BME280;19751;40.274;18.268;2023-04-06T11:17:35;100975.91;;;11.14;100.00
33404;BME280;19751;40.274;18.268;2023-04-06T11:20:04;100974.97;;;11.22;100.00
33404;BME280;19751;40.274;18.268;2023-04-06T11:22:35;100967.22;;;11.34;100.00
33404;BME280;19751;40.274;18.268;2023-04-06T11:25:07;100970.28;;;11.45;100.00
33404;BME280;19751;40.274;18.268;2023-04-06T11:27:34;100972.88;;;11.54;100.00
33404;BME280;19751;40.274;18.268;2023-04-06T11:30:00;100961.25;;;11.53;100.00
33404;BME280;19751;40.274;18.268;2023-04-06T11:32:26;100972.41;;;11.50;100.00
33404;BME280;19751;40.274;18.268;2023-04-06T11:34:52;100969.00;;;11.41;97.27
33404;BME280;19751;40.274;18.268;2023-04-06T11:37:17;100966.56;;;11.32;96.26
33404;BME280;19751;40.274;18.268;2023-04-06T11:39:50;100980.63;;;11.27;97.19
33404;BME280;19751;40.274;18.268;2023-04-06T11:42:28;100972.72;;;11.26;94.76
33404;BME280;19751;40.274;18.268;2023-04-06T11:44:58;100973.56;;;11.26;93.84
33404;BME280;19751;40.274;18.268;2023-04-06T11:47:34;100978.38;;;11.31;93.09
33404;BME280;19751;40.274;18.268;2023-04-06T11:50:10;100978.94;;;11.41;92.59
33404;BME280;19751;40.274;18.268;2023-04-06T11:52:38;100976.97;;;11.50;91.75
33404;BME280;19751;40.274;18.268;2023-04-06T11:55:14;100971.06;;;11.61;87.06
33404;BME280;19751;40.274;18.268;2023-04-06T11:57:41;100970.31;;;11.67;83.55
33404;BME280;19751;40.274;18.268;2023-04-06T12:00:08;100975.97;;;11.72;83.76
33404;BME280;19751;40.274;18.268;2023-04-06T12:02:37;100976.41;;;11.76;81.97
33404;BME280;19751;40.274;18.268;2023-04-06T12:05:04;100974.19;;;11.79;77.79
33404;BME280;19751;40.274;18.268;2023-04-06T12:07:30;100960.69;;;11.79;76.22
33404;BME280;19751;40.274;18.268;2023-04-06T12:09:56;100966.16;;;11.86;76.32
33404;BME280;19751;40.274;18.268;2023-04-06T12:12:22;100968.56;;;11.96;76.31
33404;BME280;19751;40.274;18.268;2023-04-06T12:14:49;100963.28;;;12.09;76.98
33404;BME280;19751;40.274;18.268;2023-04-06T12:17:20;100956.31;;;12.21;75.37
33404;BME280;19751;40.274;18.268;2023-04-06T12:19:46;100953.72;;;12.34;76.45
33404;BME280;19751;40.274;18.268;2023-04-06T12:22:11;100949.22;;;12.41;74.82
33404;BME280;19751;40.274;18.268;2023-04-06T12:24:37;100942.00;;;12.49;75.60
33404;BME280;19751;40.274;18.268;2023-04-06T12:27:02;100943.84;;;12.48;74.50
33404;BME280;19751;40.274;18.268;2023-04-06T12:29:28;100949.81;;;12.37;69.62
33404;BME280;19751;40.274;18.268;2023-04-06T12:31:54;100952.66;;;12.29;68.86
33404;BME280;19751;40.274;18.268;2023-04-06T12:34:19;100954.47;;;12.22;69.21
33404;BME280;19751;40.274;18.268;2023-04-06T12:36:45;100949.00;;;12.15;70.43
33404;BME280;19751;40.274;18.268;2023-04-06T12:39:11;100944.00;;;12.12;70.70
33404;BME280;19751;40.274;18.268;2023-04-06T12:41:36;100942.81;;;12.21;72.30